Terminal Aerodrome Forecast
Issued by NWS

Home | Current Version | Previous Version | Text Only | Print | Product List | Glossary On
Versions: 1 2 3 4 5 6 7 8 9 10 11 12 13 14 15 16 17 18 19 20 21 22 23
000
FTUS45 KREV 210500
TAFTVL
TAF
KTVL 210520Z 2106/2206 20012KT P6SM -SHRA SCT025 BKN040
     FM210700 20006KT P6SM SCT090
     FM211900 03007KT P6SM FEW080 BKN150
     FM220100 VRB03KT P6SM FEW080 BKN120=

USA.gov is the U.S. government's official web portal to all federal, state and local government web resources and services.